^^
Lake Charleston Parkviewx Station Historical Data
Daily Summary for November 20, 2019 Units:  Metric    English   Both
Daily Weekly Monthly Yearly Custom
  High: Low: Average:
Temperature: 26.1 °C 13.3 °C 18.6 °C
Dew Point: 14 °C 9.3 °C 11.3 °C
Humidity: 80.8% 38.7% 65%
Wind Speed: 14.3km/h 1km/h 6km/h
Wind Gust: 24.1km/h - -
Wind- - WSW
Pressure: 1021.9 hPa 1017.8 hPa -
Precipitation: 0.76 mm    
Historical Graphs
 
 
Tabular Data for November 20, 2019
Time Temperature Dew Point Pressure Wind Wind Speed Wind Gust Humidity Rainfall Rate (Hourly) solar
00:04 16.8 °C 11.7 °C 1017.8 hPa NNW 6 km/h 8 km/h 72% 0 mm W/m2
00:09 16.7 °C 11.5 °C 1017.8 hPa NNW 6.3 km/h 9.7 km/h 71.4% 0 mm W/m2
00:14 16.7 °C 11.4 °C 1017.8 hPa NNW 6.8 km/h 12.9 km/h 71.6% 0 mm W/m2
00:19 16.6 °C 11.6 °C 1017.8 hPa NNW 6.4 km/h 12.9 km/h 72.4% 0 mm W/m2
00:24 16.4 °C 11.3 °C 1017.8 hPa NNW 6.9 km/h 12.9 km/h 71.9% 0 mm W/m2
00:29 16.4 °C 11.2 °C 1017.8 hPa NNW 7.6 km/h 12.9 km/h 71.8% 0 mm W/m2
00:34 16.3 °C 11.1 °C 1017.8 hPa NNW 10 km/h 16.1 km/h 71% 0 mm W/m2
00:39 16.4 °C 10.8 °C 1017.8 hPa NNW 9.5 km/h 16.1 km/h 69.6% 0 mm W/m2
00:44 16.4 °C 10.8 °C 1017.8 hPa NNW 7.7 km/h 12.9 km/h 69.4% 0 mm W/m2
00:49 16.4 °C 10.8 °C 1017.8 hPa NNW 7.2 km/h 16.1 km/h 69.5% 0 mm W/m2
00:54 16.4 °C 10.8 °C 1017.8 hPa NNW 6.6 km/h 9.7 km/h 69.6% 0 mm W/m2
00:59 16.3 °C 10.8 °C 1017.8 hPa NNW 6.1 km/h 12.9 km/h 69.9% 0 mm W/m2
01:04 16.2 °C 10.7 °C 1017.8 hPa NNW 6 km/h 12.9 km/h 69.9% 0 mm W/m2
01:09 16.2 °C 10.8 °C 1017.8 hPa NNW 5 km/h 6.4 km/h 70.8% 0 mm W/m2
01:14 16.1 °C 10.8 °C 1017.8 hPa NNW 5.3 km/h 12.9 km/h 70.8% 0 mm W/m2
01:19 15.9 °C 10.8 °C 1017.8 hPa NNW 5.1 km/h 8 km/h 71.5% 0 mm W/m2
01:24 15.9 °C 10.8 °C 1017.8 hPa NNW 5.6 km/h 9.7 km/h 71.7% 0 mm W/m2
01:29 15.8 °C 10.7 °C 1017.8 hPa NNW 6.4 km/h 9.7 km/h 71.7% 0 mm W/m2
01:34 15.8 °C 10.8 °C 1017.8 hPa NNW 5.5 km/h 9.7 km/h 71.8% 0 mm W/m2
01:39 15.8 °C 10.8 °C 1017.8 hPa NNW 5.1 km/h 9.7 km/h 72.3% 0 mm W/m2
01:44 15.7 °C 10.7 °C 1017.8 hPa NNW 4.7 km/h 9.7 km/h 72.1% 0 mm W/m2
01:49 15.6 °C 10.8 °C 1017.8 hPa NNW 4 km/h 8 km/h 72.9% 0 mm W/m2
01:54 15.4 °C 10.7 °C 1017.8 hPa NNW 3.9 km/h 6.4 km/h 73% 0 mm W/m2
01:59 15.4 °C 10.7 °C 1017.8 hPa NW 4.2 km/h 8 km/h 73.8% 0 mm W/m2
02:04 15.4 °C 10.7 °C 1017.8 hPa NW 6 km/h 12.9 km/h 73.4% 0 mm W/m2
02:09 15.3 °C 10.5 °C 1017.8 hPa NNW 6.4 km/h 12.9 km/h 73% 0 mm W/m2
02:14 15.3 °C 10.4 °C 1017.8 hPa NW 5.8 km/h 12.9 km/h 72.7% 0 mm W/m2
02:19 15.3 °C 10.4 °C 1017.8 hPa NW 5.6 km/h 12.9 km/h 72.5% 0 mm W/m2
02:24 15.2 °C 10.4 °C 1017.8 hPa NW 5 km/h 12.9 km/h 73% 0 mm W/m2
02:29 15.2 °C 10.4 °C 1017.8 hPa NW 4.3 km/h 12.9 km/h 73.2% 0 mm W/m2
02:34 15.1 °C 10.4 °C 1017.8 hPa NW 5.3 km/h 9.7 km/h 73.8% 0 mm W/m2
02:39 15 °C 10.3 °C 1017.8 hPa NNW 5.1 km/h 8 km/h 73.6% 0 mm W/m2
02:44 14.9 °C 10.3 °C 1017.8 hPa NW 5 km/h 11.3 km/h 74.4% 0 mm W/m2
02:49 14.7 °C 10.4 °C 1017.8 hPa NW 4 km/h 11.3 km/h 75.2% 0.25 mm W/m2
02:54 14.7 °C 10.4 °C 1017.8 hPa NW 3.5 km/h 9.7 km/h 76.2% 0.25 mm W/m2
02:59 14.5 °C 10.5 °C 1017.8 hPa NW 3.1 km/h 9.7 km/h 77% 0.51 mm W/m2
03:04 14.3 °C 10.3 °C 1017.8 hPa NW 3.9 km/h 6.4 km/h 77.1% 0.51 mm W/m2
03:09 14.2 °C 10.1 °C 1017.8 hPa NNW 4.7 km/h 8 km/h 76.2% 0.51 mm W/m2
03:14 14.1 °C 10 °C 1017.8 hPa NNW 5 km/h 8 km/h 76.4% 0.76 mm W/m2
03:19 14.1 °C 9.9 °C 1017.8 hPa NW 4.2 km/h 8 km/h 76.4% 0.76 mm W/m2
03:24 13.9 °C 9.8 °C 1018.2 hPa NNW 4.3 km/h 8 km/h 76.4% 0.76 mm W/m2
03:29 13.9 °C 9.7 °C 1018.2 hPa NNW 5.8 km/h 8 km/h 75.8% 0.76 mm W/m2
03:34 13.9 °C 9.7 °C 1018.2 hPa NW 5.6 km/h 8 km/h 75.9% 0.76 mm W/m2
03:39 13.8 °C 9.6 °C 1018.2 hPa NNW 4.8 km/h 8 km/h 75.5% 0.76 mm W/m2
03:44 13.8 °C 9.5 °C 1018.2 hPa NNW 4.3 km/h 8 km/h 75.4% 0.76 mm W/m2
03:49 13.8 °C 9.6 °C 1018.2 hPa NNW 3.9 km/h 8 km/h 75.8% 0.76 mm W/m2
03:54 13.7 °C 9.3 °C 1018.5 hPa NNW 5 km/h 9.7 km/h 75.2% 0.51 mm W/m2
03:59 13.7 °C 9.4 °C 1018.5 hPa NNW 4.3 km/h 8 km/h 75.4% 0.51 mm W/m2
04:04 13.7 °C 9.3 °C 1018.5 hPa NNW 5 km/h 9.7 km/h 75.3% 0.51 mm W/m2
04:09 13.7 °C 9.4 °C 1018.5 hPa NNW 4.2 km/h 6.4 km/h 75.5% 0.25 mm W/m2
04:14 13.6 °C 9.3 °C 1018.5 hPa NNW 4 km/h 8 km/h 75.6% 0.25 mm W/m2
04:19 13.6 °C 9.3 °C 1018.5 hPa NNW 4.2 km/h 8 km/h 75.3% 0 mm W/m2
04:24 13.6 °C 9.5 °C 1018.5 hPa NW 4.3 km/h 6.4 km/h 76.5% 0 mm W/m2
04:29 13.6 °C 9.5 °C 1018.5 hPa NNW 4.8 km/h 8 km/h 76.5% 0 mm W/m2
04:34 13.6 °C 9.6 °C 1018.5 hPa NNW 4.3 km/h 8 km/h 77% 0 mm W/m2
04:39 13.4 °C 9.6 °C 1018.2 hPa NNW 4 km/h 6.4 km/h 77.5% 0 mm W/m2
04:44 13.4 °C 9.6 °C 1018.5 hPa NNW 5 km/h 8 km/h 78.1% 0 mm W/m2
04:49 13.4 °C 9.6 °C 1018.5 hPa NW 5 km/h 8 km/h 78.1% 0 mm W/m2
04:54 13.4 °C 9.7 °C 1018.5 hPa NW 4.3 km/h 8 km/h 78.3% 0 mm W/m2
04:59 13.3 °C 9.7 °C 1018.5 hPa NNW 4.3 km/h 6.4 km/h 78.7% 0 mm W/m2
05:04 13.3 °C 9.7 °C 1018.5 hPa NNW 4.5 km/h 8 km/h 79% 0 mm W/m2
05:09 13.3 °C 9.8 °C 1018.5 hPa NW 4.2 km/h 6.4 km/h 79.2% 0 mm W/m2
05:14 13.3 °C 9.7 °C 1018.8 hPa NNW 5.6 km/h 8 km/h 79% 0 mm W/m2
05:19 13.3 °C 9.9 °C 1018.8 hPa NW 4.2 km/h 8 km/h 80% 0 mm W/m2
05:24 13.3 °C 9.8 °C 1018.8 hPa NW 5.1 km/h 8 km/h 79.7% 0 mm W/m2
05:29 13.3 °C 9.9 °C 1018.8 hPa NW 4.2 km/h 6.4 km/h 80% 0 mm W/m2
05:34 13.3 °C 9.9 °C 1018.8 hPa NW 4.5 km/h 9.7 km/h 79.8% 0 mm W/m2
05:39 13.3 °C 9.8 °C 1018.8 hPa NNW 5.8 km/h 9.7 km/h 79.7% 0 mm W/m2
05:44 13.3 °C 9.8 °C 1018.8 hPa NNW 5.6 km/h 9.7 km/h 79.8% 0 mm W/m2
05:49 13.3 °C 9.8 °C 1019.2 hPa NNW 4.5 km/h 9.7 km/h 79.8% 0 mm W/m2
05:54 13.3 °C 10 °C 1019.2 hPa NW 4.5 km/h 6.4 km/h 80.6% 0 mm W/m2
05:59 13.3 °C 10.1 °C 1019.2 hPa NW 4.5 km/h 8 km/h 80.7% 0 mm W/m2
06:04 13.4 °C 10.1 °C 1019.2 hPa NW 4.5 km/h 8 km/h 80.6% 0 mm W/m2
06:09 13.4 °C 10.1 °C 1019.5 hPa NNW 4.7 km/h 6.4 km/h 80.5% 0 mm W/m2
06:14 13.3 °C 10.1 °C 1019.5 hPa NNW 4.7 km/h 8 km/h 80.7% 0 mm W/m2
06:19 13.3 °C 10.1 °C 1019.5 hPa NNW 4.8 km/h 8 km/h 80.5% 0 mm W/m2
06:24 13.3 °C 10.1 °C 1019.5 hPa NNW 5 km/h 8 km/h 80.8% 0 mm W/m2
06:29 13.4 °C 10.1 °C 1019.5 hPa NNW 4.7 km/h 8 km/h 80.4% 0 mm W/m2
06:34 13.4 °C 10.1 °C 1019.5 hPa NNW 4.5 km/h 8 km/h 80.2% 0 mm W/m2
06:39 13.4 °C 9.9 °C 1019.5 hPa NNW 4.8 km/h 8 km/h 79.7% 0 mm W/m2
06:44 13.4 °C 9.9 °C 1019.5 hPa NNW 4.5 km/h 6.4 km/h 79.6% 0 mm W/m2
06:49 13.4 °C 10 °C 1019.5 hPa NW 4.7 km/h 8 km/h 80% 0 mm W/m2
06:54 13.4 °C 9.9 °C 1019.5 hPa NNW 4.7 km/h 8 km/h 79.5% 0 mm W/m2
06:59 13.4 °C 9.9 °C 1019.5 hPa NNW 5.5 km/h 9.7 km/h 79.5% 0 mm W/m2
07:04 13.5 °C 9.9 °C 1019.5 hPa NNW 6.1 km/h 9.7 km/h 78.9% 0 mm W/m2
07:09 13.7 °C 9.8 °C 1019.9 hPa NNW 6.8 km/h 12.9 km/h 77.5% 0 mm W/m2
07:14 13.8 °C 9.7 °C 1019.9 hPa NNW 8.7 km/h 14.5 km/h 76% 0 mm W/m2
07:19 14.2 °C 9.7 °C 1019.9 hPa NNW 8.7 km/h 14.5 km/h 74.6% 0 mm W/m2
07:24 14.3 °C 9.8 °C 1020.2 hPa NNW 7.4 km/h 12.9 km/h 74.3% 0 mm W/m2
07:29 14.6 °C 9.7 °C 1020.2 hPa NNW 7.2 km/h 14.5 km/h 73.1% 0 mm W/m2
07:34 14.7 °C 9.8 °C 1020.2 hPa NNW 6.1 km/h 9.7 km/h 72.9% 0 mm W/m2
07:39 14.7 °C 9.9 °C 1020.2 hPa NNW 8.5 km/h 14.5 km/h 72.8% 0 mm W/m2
07:44 14.8 °C 9.9 °C 1020.2 hPa NNW 9.8 km/h 16.1 km/h 72.4% 0 mm W/m2
07:49 15.1 °C 10.1 °C 1020.5 hPa NNW 7.9 km/h 14.5 km/h 72.4% 0 mm W/m2
07:54 15.2 °C 10.3 °C 1020.5 hPa NNW 7.9 km/h 16.1 km/h 72.4% 0 mm W/m2
07:59 15.4 °C 10.4 °C 1020.5 hPa NNW 7.1 km/h 14.5 km/h 72.1% 0 mm W/m2
08:04 15.6 °C 10.3 °C 1020.5 hPa NNW 9.5 km/h 16.1 km/h 70.8% 0 mm W/m2
08:09 15.8 °C 10.2 °C 1020.5 hPa NNW 10.6 km/h 17.7 km/h 69.4% 0 mm W/m2
08:14 16 °C 10.4 °C 1021.2 hPa NNW 7.4 km/h 17.7 km/h 69.4% 0 mm W/m2
08:19 16.1 °C 10.3 °C 1020.9 hPa NNW 8.9 km/h 17.7 km/h 68.4% 0 mm W/m2
08:24 16.3 °C 10.3 °C 1020.9 hPa NNW 9.7 km/h 17.7 km/h 67.8% 0 mm W/m2
08:29 16.4 °C 10.7 °C 1020.9 hPa NNW 7.2 km/h 14.5 km/h 68.5% 0 mm W/m2
08:34 16.6 °C 10.7 °C 1020.9 hPa NNW 7.9 km/h 16.1 km/h 68.2% 0 mm W/m2
08:39 16.7 °C 10.6 °C 1020.9 hPa NNW 7.1 km/h 14.5 km/h 67% 0 mm W/m2
08:44 16.9 °C 10.9 °C 1020.9 hPa NNW 7.1 km/h 16.1 km/h 67.6% 0 mm W/m2
08:49 17.2 °C 10.9 °C 1021.2 hPa NNW 5.3 km/h 12.9 km/h 66.6% 0 mm W/m2
08:54 17.4 °C 11 °C 1021.2 hPa NNW 6.1 km/h 9.7 km/h 65.9% 0 mm W/m2
08:59 17.6 °C 10.9 °C 1021.2 hPa North 4.8 km/h 12.9 km/h 64.8% 0 mm W/m2
09:04 17.7 °C 10.7 °C 1021.2 hPa NW 6 km/h 12.9 km/h 63.3% 0 mm W/m2
09:09 17.9 °C 10.8 °C 1021.2 hPa NNW 8.2 km/h 12.9 km/h 62.9% 0 mm W/m2
09:14 18.2 °C 10.6 °C 1021.2 hPa NNW 10.3 km/h 20.9 km/h 61.3% 0 mm W/m2
09:19 18.4 °C 10.9 °C 1021.2 hPa NNW 10.1 km/h 20.9 km/h 61.6% 0 mm W/m2
09:24 18.7 °C 10.9 °C 1021.2 hPa NNW 12.2 km/h 20.9 km/h 60.4% 0 mm W/m2
09:29 18.8 °C 9.6 °C 1021.2 hPa NNW 14.3 km/h 24.1 km/h 55.3% 0 mm W/m2
09:34 18.9 °C 10 °C 1021.2 hPa NNW 11.1 km/h 24.1 km/h 56.3% 0 mm W/m2
09:39 19.2 °C 10.8 °C 1021.2 hPa NNW 9.2 km/h 24.1 km/h 58% 0 mm W/m2
09:44 19.4 °C 10.6 °C 1021.2 hPa NNW 12.6 km/h 19.3 km/h 56.8% 0 mm W/m2
09:49 19.5 °C 10.4 °C 1021.6 hPa NNW 8.5 km/h 16.1 km/h 55.8% 0 mm W/m2
09:54 19.7 °C 10.8 °C 1021.6 hPa NNW 10.9 km/h 19.3 km/h 56.8% 0 mm W/m2
09:59 19.8 °C 11.2 °C 1021.6 hPa NNW 10.5 km/h 17.7 km/h 57.7% 0 mm W/m2
10:04 19.9 °C 11.4 °C 1021.6 hPa NNW 10.1 km/h 20.9 km/h 57.7% 0 mm W/m2
10:09 20.2 °C 11.7 °C 1021.6 hPa North 6.8 km/h 12.9 km/h 58.3% 0 mm W/m2
10:14 20.2 °C 11.3 °C 1021.6 hPa North 7.4 km/h 20.9 km/h 56.4% 0 mm W/m2
10:19 20.3 °C 11.8 °C 1021.6 hPa NNW 8.4 km/h 14.5 km/h 58.3% 0 mm W/m2
10:24 20.4 °C 10.8 °C 1021.6 hPa NNW 10.9 km/h 17.7 km/h 54% 0 mm W/m2
10:29 20.4 °C 10.8 °C 1021.6 hPa NNW 8.9 km/h 16.1 km/h 53.9% 0 mm W/m2
10:34 20.6 °C 11.4 °C 1021.2 hPa NNW 8.5 km/h 17.7 km/h 55.6% 0 mm W/m2
10:39 20.7 °C 11.3 °C 1021.2 hPa NNW 7.1 km/h 17.7 km/h 55% 0 mm W/m2
10:44 20.8 °C 11.8 °C 1021.2 hPa North 8.5 km/h 14.5 km/h 56.3% 0 mm W/m2
10:49 20.9 °C 12.2 °C 1021.2 hPa North 6.4 km/h 14.5 km/h 57.4% 0 mm W/m2
10:54 21.1 °C 11.9 °C 1021.2 hPa NNW 7.6 km/h 14.5 km/h 55.8% 0 mm W/m2
10:59 21.2 °C 12.2 °C 1021.2 hPa North 6.6 km/h 14.5 km/h 56.6% 0 mm W/m2
11:04 21.2 °C 11.5 °C 1021.2 hPa NNW 10.8 km/h 17.7 km/h 53.8% 0 mm W/m2
11:09 21.3 °C 10.7 °C 1021.2 hPa NNW 11.4 km/h 20.9 km/h 50.9% 0 mm W/m2
11:14 21.3 °C 10.3 °C 1021.2 hPa NNW 13.2 km/h 19.3 km/h 49.3% 0 mm W/m2
11:19 21.4 °C 10.2 °C 1021.2 hPa NNW 11.1 km/h 20.9 km/h 48.8% 0 mm W/m2
11:24 21.4 °C 9.8 °C 1021.2 hPa NNW 11.1 km/h 17.7 km/h 47.7% 0 mm W/m2
11:29 21.6 °C 10.6 °C 1021.2 hPa NNW 8.7 km/h 19.3 km/h 49.7% 0 mm W/m2
11:34 21.7 °C 10.5 °C 1020.9 hPa NNW 9.2 km/h 17.7 km/h 48.8% 0 mm W/m2
11:39 21.8 °C 11.1 °C 1020.9 hPa North 8 km/h 14.5 km/h 50.6% 0 mm W/m2
11:44 21.8 °C 10.7 °C 1020.9 hPa NNW 10.3 km/h 17.7 km/h 49.4% 0 mm W/m2
11:49 21.9 °C 11.4 °C 1020.9 hPa North 7.2 km/h 17.7 km/h 51.2% 0 mm W/m2
11:54 22.2 °C 11.6 °C 1020.9 hPa North 7.1 km/h 17.7 km/h 51.2% 0 mm W/m2
11:59 22.2 °C 11.3 °C 1021.2 hPa North 5.3 km/h 17.7 km/h 49.8% 0 mm W/m2
12:04 22.3 °C 11.2 °C 1020.9 hPa NW 8.4 km/h 14.5 km/h 49.2% 0 mm W/m2
12:09 22.4 °C 11.1 °C 1020.9 hPa North 6.1 km/h 14.5 km/h 48.8% 0 mm W/m2
12:14 22.7 °C 11.9 °C 1020.9 hPa NE 4.8 km/h 16.1 km/h 51% 0 mm W/m2
12:19 22.9 °C 11.6 °C 1020.9 hPa NNW 7.4 km/h 14.5 km/h 48.9% 0 mm W/m2
12:24 23.2 °C 10.9 °C 1020.5 hPa NNW 8.5 km/h 17.7 km/h 46.2% 0 mm W/m2
12:29 23.3 °C 9.3 °C 1020.5 hPa NNW 9.5 km/h 17.7 km/h 41% 0 mm W/m2
12:34 23.4 °C 9.7 °C 1020.5 hPa NNW 6.9 km/h 17.7 km/h 41.9% 0 mm W/m2
12:39 23.7 °C 10.4 °C 1020.5 hPa NW 10.1 km/h 19.3 km/h 43.2% 0 mm W/m2
12:44 23.7 °C 9.6 °C 1020.2 hPa NNW 8.2 km/h 19.3 km/h 40.9% 0 mm W/m2
12:49 23.8 °C 10.3 °C 1020.2 hPa North 5.6 km/h 19.3 km/h 42.5% 0 mm W/m2
12:54 23.9 °C 10.4 °C 1020.2 hPa NNW 4.8 km/h 19.3 km/h 42.6% 0 mm W/m2
12:59 24.1 °C 9.5 °C 1020.2 hPa NNW 6.3 km/h 12.9 km/h 39.7% 0 mm W/m2
13:04 24.3 °C 10.6 °C 1020.2 hPa NNW 7.4 km/h 17.7 km/h 42.3% 0 mm W/m2
13:09 24.3 °C 10.4 °C 1019.9 hPa North 5.6 km/h 14.5 km/h 41.3% 0 mm W/m2
13:14 24.5 °C 10.4 °C 1019.9 hPa NNW 5.1 km/h 17.7 km/h 41.1% 0 mm W/m2
13:19 24.7 °C 9.7 °C 1019.9 hPa NNW 7.4 km/h 14.5 km/h 39% 0 mm W/m2
13:24 24.7 °C 11.4 °C 1019.9 hPa North 4.8 km/h 14.5 km/h 43.5% 0 mm W/m2
13:29 24.8 °C 11.5 °C 1019.9 hPa NNE 6.9 km/h 14.5 km/h 43.5% 0 mm W/m2
13:34 24.9 °C 9.8 °C 1019.9 hPa NNW 6.3 km/h 14.5 km/h 38.8% 0 mm W/m2
13:39 24.9 °C 11.2 °C 1019.9 hPa NNE 4 km/h 9.7 km/h 42.2% 0 mm W/m2
13:44 25.1 °C 11.3 °C 1019.5 hPa North 6.4 km/h 14.5 km/h 42.2% 0 mm W/m2
13:49 24.9 °C 11.4 °C 1019.9 hPa North 6.3 km/h 11.3 km/h 42.9% 0 mm W/m2
13:54 24.8 °C 10.8 °C 1019.5 hPa NNW 3.2 km/h 14.5 km/h 41.6% 0 mm W/m2
13:59 25 °C 11.8 °C 1019.5 hPa NNW 9.3 km/h 17.7 km/h 43.7% 0 mm W/m2
14:04 25.1 °C 11.7 °C 1019.5 hPa North 6.8 km/h 17.7 km/h 43.4% 0 mm W/m2
14:09 25.1 °C 12.1 °C 1019.5 hPa North 7.2 km/h 17.7 km/h 44.4% 0 mm W/m2
14:14 25.2 °C 11.5 °C 1019.5 hPa North 5.5 km/h 17.7 km/h 42.5% 0 mm W/m2
14:19 25.3 °C 11.4 °C 1019.5 hPa North 7.6 km/h 17.7 km/h 42% 0 mm W/m2
14:24 25.3 °C 10.4 °C 1019.5 hPa NNW 4.3 km/h 12.9 km/h 39.1% 0 mm W/m2
14:29 25.4 °C 12.5 °C 1019.5 hPa NE 6.1 km/h 17.7 km/h 44.6% 0 mm W/m2
14:34 25.7 °C 11.9 °C 1019.5 hPa North 7.7 km/h 14.5 km/h 42.4% 0 mm W/m2
14:39 25.3 °C 10.4 °C 1019.5 hPa NNW 6.6 km/h 16.1 km/h 39.3% 0 mm W/m2
14:44 25.2 °C 10.4 °C 1019.5 hPa NNW 7.9 km/h 14.5 km/h 39.4% 0 mm W/m2
14:49 25.2 °C 11.9 °C 1019.5 hPa North 4.2 km/h 14.5 km/h 43.9% 0 mm W/m2
14:54 25.5 °C 12 °C 1019.5 hPa NE 4 km/h 14.5 km/h 43.1% 0 mm W/m2
14:59 25.9 °C 11.2 °C 1019.5 hPa NNE 9 km/h 19.3 km/h 39.8% 0 mm W/m2
15:04 26.1 °C 12.4 °C 1019.5 hPa North 5.5 km/h 9.7 km/h 42.9% 0 mm W/m2
15:09 25.8 °C 11.9 °C 1019.5 hPa NNE 5.5 km/h 19.3 km/h 42.2% 0 mm W/m2
15:14 25.8 °C 11.8 °C 1019.5 hPa NNE 6.3 km/h 14.5 km/h 41.7% 0 mm W/m2
15:19 25.7 °C 10.6 °C 1019.5 hPa NW 6.6 km/h 12.9 km/h 38.7% 0 mm W/m2
15:24 25.7 °C 12.6 °C 1019.5 hPa NE 6.6 km/h 14.5 km/h 44.6% 0 mm W/m2
15:29 25.8 °C 12.6 °C 1019.5 hPa NNE 4.7 km/h 11.3 km/h 43.9% 0 mm W/m2
15:34 26 °C 12.3 °C 1019.5 hPa NNE 5.1 km/h 14.5 km/h 42.6% 0 mm W/m2
15:39 25.8 °C 12.1 °C 1019.5 hPa North 5.3 km/h 12.9 km/h 42.3% 0 mm W/m2
15:44 25.7 °C 12.9 °C 1019.5 hPa North 5.5 km/h 14.5 km/h 45.2% 0 mm W/m2
15:49 25.5 °C 14 °C 1019.5 hPa NE 4.2 km/h 12.9 km/h 48.9% 0 mm W/m2
15:54 25.7 °C 13.4 °C 1019.5 hPa NE 6.6 km/h 14.5 km/h 46.7% 0 mm W/m2
15:59 25.9 °C 13.3 °C 1019.5 hPa NE 7.2 km/h 14.5 km/h 45.5% 0 mm W/m2
16:04 25.9 °C 13.2 °C 1019.5 hPa NE 6.8 km/h 14.5 km/h 45.4% 0 mm W/m2
16:09 25.8 °C 12.9 °C 1019.5 hPa ENE 7.9 km/h 16.1 km/h 44.5% 0 mm W/m2
16:14 25.7 °C 13.2 °C 1019.9 hPa NE 6.9 km/h 16.1 km/h 46.1% 0 mm W/m2
16:19 25.5 °C 12.9 °C 1019.9 hPa NE 8.4 km/h 16.1 km/h 45.6% 0 mm W/m2
16:24 25.3 °C 12.6 °C 1019.9 hPa ENE 9.2 km/h 19.3 km/h 45.2% 0 mm W/m2
16:29 25 °C 12.6 °C 1019.9 hPa ENE 6.8 km/h 12.9 km/h 46.1% 0 mm W/m2
16:34 24.7 °C 12.6 °C 1019.9 hPa NE 10.5 km/h 19.3 km/h 46.7% 0 mm W/m2
16:39 24.4 °C 13.3 °C 1019.9 hPa NE 7.2 km/h 16.1 km/h 50% 0 mm W/m2
16:44 24.1 °C 13.1 °C 1019.9 hPa NE 7.2 km/h 19.3 km/h 50.3% 0 mm W/m2
16:49 23.6 °C 13.4 °C 1019.9 hPa NNE 6.4 km/h 16.1 km/h 52.8% 0 mm W/m2
16:54 22.9 °C 13.3 °C 1020.2 hPa NNE 6.6 km/h 19.3 km/h 54.4% 0 mm W/m2
16:59 22.4 °C 12.9 °C 1020.2 hPa NNE 5.5 km/h 12.9 km/h 55.2% 0 mm W/m2
17:04 22.1 °C 13.4 °C 1020.2 hPa NNE 4.7 km/h 9.7 km/h 58.2% 0 mm W/m2
17:09 21.8 °C 13.3 °C 1020.2 hPa NE 5.6 km/h 12.9 km/h 58.7% 0 mm W/m2
17:14 21.5 °C 13.5 °C 1020.2 hPa NNE 3.9 km/h 8 km/h 60.3% 0 mm W/m2
17:19 21.3 °C 13.1 °C 1020.2 hPa NE 5.5 km/h 11.3 km/h 59.3% 0 mm W/m2
17:24 21.2 °C 12.6 °C 1020.2 hPa NE 6.3 km/h 14.5 km/h 58.1% 0 mm W/m2
17:29 20.9 °C 12.8 °C 1020.2 hPa NNE 5.8 km/h 14.5 km/h 60.1% 0 mm W/m2
17:34 20.7 °C 12.9 °C 1020.5 hPa NNE 4.3 km/h 12.9 km/h 61% 0 mm W/m2
17:39 20.6 °C 12.7 °C 1020.5 hPa NE 5.8 km/h 14.5 km/h 60.8% 0 mm W/m2
17:44 20.3 °C 12.8 °C 1020.5 hPa NNE 4.3 km/h 12.9 km/h 62% 0 mm W/m2
17:49 20.2 °C 12.8 °C 1020.5 hPa NE 4.8 km/h 9.7 km/h 62.4% 0 mm W/m2
17:54 20.1 °C 12.8 °C 1020.5 hPa NE 3.4 km/h 12.9 km/h 63.1% 0 mm W/m2
17:59 19.9 °C 12.8 °C 1020.5 hPa NE 3.7 km/h 8 km/h 63.7% 0 mm W/m2
18:04 19.8 °C 12.8 °C 1020.5 hPa NE 4 km/h 9.7 km/h 64% 0 mm W/m2
18:09 19.8 °C 12.8 °C 1020.5 hPa NNE 3.4 km/h 9.7 km/h 64.3% 0 mm W/m2
18:14 19.7 °C 12.8 °C 1020.5 hPa NNE 2.4 km/h 9.7 km/h 64.7% 0 mm W/m2
18:19 19.6 °C 12.4 °C 1020.9 hPa NNE 3.2 km/h 9.7 km/h 63.6% 0 mm W/m2
18:24 19.3 °C 12.2 °C 1020.9 hPa NNE 1.4 km/h 6.4 km/h 63.3% 0 mm W/m2
18:29 19.2 °C 12.7 °C 1020.9 hPa NNE 1.4 km/h 6.4 km/h 65.5% 0 mm W/m2
18:34 19.1 °C 12.7 °C 1020.9 hPa NNE 1.9 km/h 6.4 km/h 66.4% 0 mm W/m2
18:39 18.9 °C 12.6 °C 1020.9 hPa NNE 1.8 km/h 3.2 km/h 66.6% 0 mm W/m2
18:44 18.8 °C 12.8 °C 1020.9 hPa NNE 2.3 km/h 4.8 km/h 67.8% 0 mm W/m2
18:49 18.7 °C 12.7 °C 1020.9 hPa NNE 1 km/h 3.2 km/h 68% 0 mm W/m2
18:54 18.7 °C 12.4 °C 1020.9 hPa NNE 1.3 km/h 4.8 km/h 67% 0 mm W/m2
18:59 18.5 °C 12.3 °C 1020.9 hPa NNE 2.4 km/h 4.8 km/h 67% 0 mm W/m2
19:04 18.3 °C 12.2 °C 1020.9 hPa NNE 2.9 km/h 6.4 km/h 67% 0 mm W/m2
19:09 18.2 °C 12.1 °C 1020.9 hPa NNE 3.2 km/h 6.4 km/h 67% 0 mm W/m2
19:14 18.1 °C 12.2 °C 1020.9 hPa NNE 1.4 km/h 4.8 km/h 68.6% 0 mm W/m2
19:19 17.9 °C 12.4 °C 1020.9 hPa NNE 1.6 km/h 6.4 km/h 70% 0 mm W/m2
19:24 17.8 °C 12.7 °C 1020.9 hPa NNE 1.6 km/h 4.8 km/h 71.7% 0 mm W/m2
19:29 17.8 °C 12.9 °C 1020.9 hPa NNE 2.1 km/h 3.2 km/h 73% 0 mm W/m2
19:34 17.7 °C 12.8 °C 1021.2 hPa NNE 1.9 km/h 4.8 km/h 73.1% 0 mm W/m2
19:39 17.7 °C 12.9 °C 1021.2 hPa NNE 2.3 km/h 4.8 km/h 73.4% 0 mm W/m2
19:44 17.7 °C 12.5 °C 1021.2 hPa NNE 2.7 km/h 4.8 km/h 71.4% 0 mm W/m2
19:49 17.7 °C 12.4 °C 1021.2 hPa NNE 2.1 km/h 3.2 km/h 71.3% 0 mm W/m2
19:54 17.7 °C 12.6 °C 1021.2 hPa NNE 2.9 km/h 4.8 km/h 72% 0 mm W/m2
19:59 17.7 °C 12.6 °C 1021.6 hPa North 2.7 km/h 4.8 km/h 72% 0 mm W/m2
20:04 17.6 °C 12.5 °C 1021.6 hPa North 2.4 km/h 4.8 km/h 72% 0 mm W/m2
20:09 17.6 °C 12.5 °C 1021.6 hPa North 1.6 km/h 3.2 km/h 72% 0 mm W/m2
20:14 17.6 °C 12.6 °C 1021.6 hPa North 2.9 km/h 4.8 km/h 72.6% 0 mm W/m2
20:19 17.5 °C 12.4 °C 1021.6 hPa North 3.9 km/h 6.4 km/h 72.3% 0 mm W/m2
20:24 17.5 °C 12.4 °C 1021.6 hPa North 3.9 km/h 6.4 km/h 72% 0 mm W/m2
20:29 17.5 °C 12.3 °C 1021.6 hPa NNW 4.3 km/h 6.4 km/h 71.6% 0 mm W/m2
20:34 17.5 °C 12.6 °C 1021.6 hPa NNW 4 km/h 6.4 km/h 73% 0 mm W/m2
20:39 17.4 °C 12.6 °C 1021.6 hPa NNW 3.7 km/h 4.8 km/h 73.4% 0 mm W/m2
20:44 17.4 °C 12.7 °C 1021.6 hPa NNW 4.3 km/h 6.4 km/h 74% 0 mm W/m2
20:49 17.3 °C 12.7 °C 1021.6 hPa NNW 4.3 km/h 6.4 km/h 73.8% 0 mm W/m2
20:54 17.4 °C 12.7 °C 1021.9 hPa NNW 4.7 km/h 6.4 km/h 73.9% 0 mm W/m2
20:59 17.4 °C 12.6 °C 1021.9 hPa NNW 4.3 km/h 8 km/h 73.2% 0 mm W/m2
21:04 17.4 °C 12.5 °C 1021.9 hPa NNW 4.5 km/h 6.4 km/h 72.7% 0 mm W/m2
21:09 17.4 °C 12.3 °C 1021.9 hPa NNW 4.8 km/h 8 km/h 72.1% 0 mm W/m2
21:14 17.4 °C 12.4 °C 1021.9 hPa NNW 4.7 km/h 8 km/h 72.5% 0 mm W/m2
21:19 17.4 °C 12.4 °C 1021.9 hPa NNW 4.3 km/h 8 km/h 72.6% 0 mm W/m2
21:24 17.4 °C 12.6 °C 1021.6 hPa NNW 4 km/h 8 km/h 73.3% 0 mm W/m2
21:29 17.4 °C 12.7 °C 1021.6 hPa NNW 4.5 km/h 6.4 km/h 73.9% 0 mm W/m2
21:34 17.4 °C 13 °C 1021.6 hPa NNW 3.9 km/h 4.8 km/h 75.6% 0 mm W/m2
21:39 17.3 °C 12.9 °C 1021.6 hPa NNW 4.5 km/h 6.4 km/h 75.5% 0 mm W/m2
21:44 17.3 °C 12.7 °C 1021.6 hPa NNW 4.8 km/h 6.4 km/h 74.6% 0 mm W/m2
21:49 17.3 °C 13 °C 1021.6 hPa NNW 4.2 km/h 6.4 km/h 75.9% 0 mm W/m2
21:54 17.3 °C 13.2 °C 1021.6 hPa NNW 4.8 km/h 8 km/h 76.6% 0 mm W/m2
21:59 17.3 °C 12.7 °C 1021.6 hPa NNW 5 km/h 8 km/h 74.3% 0 mm W/m2
22:04 17.3 °C 12.2 °C 1021.6 hPa NNW 5.8 km/h 9.7 km/h 72.2% 0 mm W/m2
22:09 17.4 °C 12.3 °C 1021.6 hPa NNW 5.1 km/h 8 km/h 71.9% 0 mm W/m2
22:14 17.4 °C 12.1 °C 1021.6 hPa NNW 6 km/h 9.7 km/h 71.2% 0 mm W/m2
22:19 17.4 °C 12.2 °C 1021.6 hPa NNW 5.8 km/h 8 km/h 71.3% 0 mm W/m2
22:24 17.4 °C 12.2 °C 1021.6 hPa NNW 5.5 km/h 9.7 km/h 71.2% 0 mm W/m2
22:29 17.6 °C 12.4 °C 1021.6 hPa NNW 5.3 km/h 8 km/h 71.5% 0 mm W/m2
22:34 17.6 °C 12.1 °C 1021.6 hPa NNW 6.1 km/h 9.7 km/h 69.9% 0 mm W/m2
22:39 17.6 °C 11.9 °C 1021.6 hPa NNW 6.6 km/h 9.7 km/h 69.7% 0 mm W/m2
22:44 17.6 °C 12.1 °C 1021.2 hPa NNW 6 km/h 9.7 km/h 70.1% 0 mm W/m2
22:49 17.6 °C 12.2 °C 1021.2 hPa NNW 6.8 km/h 12.9 km/h 70.7% 0 mm W/m2
22:54 17.6 °C 12.3 °C 1021.2 hPa NNW 7.4 km/h 9.7 km/h 71.2% 0 mm W/m2
22:59 17.5 °C 12.4 °C 1021.2 hPa NNW 6.9 km/h 12.9 km/h 71.8% 0 mm W/m2
23:04 17.4 °C 12.5 °C 1021.2 hPa NNW 6.9 km/h 12.9 km/h 73% 0 mm W/m2
23:09 17.4 °C 12.6 °C 1021.2 hPa NNW 7.6 km/h 12.9 km/h 73.4% 0 mm W/m2
23:14 17.4 °C 12.7 °C 1021.2 hPa NNW 6.4 km/h 9.7 km/h 74% 0 mm W/m2
23:19 17.4 °C 12.8 °C 1021.2 hPa NNW 6.8 km/h 12.9 km/h 74.2% 0 mm W/m2
23:24 17.4 °C 12.9 °C 1021.2 hPa NNW 7.4 km/h 12.9 km/h 75.2% 0 mm W/m2
23:29 17.4 °C 13 °C 1021.2 hPa NNW 8.7 km/h 14.5 km/h 75.4% 0 mm W/m2
23:34 17.4 °C 13.1 °C 1021.2 hPa NNW 8.9 km/h 14.5 km/h 75.7% 0 mm W/m2
23:39 17.4 °C 13.1 °C 1021.2 hPa NNW 7.7 km/h 12.9 km/h 75.9% 0 mm W/m2
23:44 17.4 °C 13.1 °C 1021.2 hPa NNW 9.8 km/h 16.1 km/h 75.9% 0 mm W/m2
23:49 17.5 °C 13.2 °C 1021.2 hPa NNW 7.9 km/h 14.5 km/h 76% 0 mm W/m2
23:54 17.4 °C 13.1 °C 1021.2 hPa NNW 7.9 km/h 16.1 km/h 75.9% 0 mm W/m2
23:59 17.4 °C 13.1 °C 1021.2 hPa NNW 9.2 km/h 14.5 km/h 76% 0 mm W/m2
Lake Worth, USA
Compliments of Weather Underground - 4 mb